sensor_id;sensor_type;location;lat;lon;timestamp;pressure;altitude;pressure_sealevel;temperature;humidity
77877;BME280;67251;50.844;7.978;2024-01-27T00:01:11;100517.41;;;1.53;99.31
77877;BME280;67251;50.844;7.978;2024-01-27T00:03:37;100525.00;;;1.45;100.00
77877;BME280;67251;50.844;7.978;2024-01-27T00:06:02;100524.56;;;1.38;100.00
77877;BME280;67251;50.844;7.978;2024-01-27T00:08:27;100521.38;;;1.33;100.00
77877;BME280;67251;50.844;7.978;2024-01-27T00:10:53;100522.84;;;1.24;100.00
77877;BME280;67251;50.844;7.978;2024-01-27T00:13:18;100525.22;;;1.15;100.00
77877;BME280;67251;50.844;7.978;2024-01-27T00:15:44;100527.41;;;1.08;100.00
77877;BME280;67251;50.844;7.978;2024-01-27T00:18:09;100532.03;;;1.05;100.00
77877;BME280;67251;50.844;7.978;2024-01-27T00:20:34;100523.91;;;1.08;100.00
77877;BME280;67251;50.844;7.978;2024-01-27T00:23:00;100528.88;;;1.12;100.00
77877;BME280;67251;50.844;7.978;2024-01-27T00:25:25;100522.78;;;1.12;100.00
77877;BME280;67251;50.844;7.978;2024-01-27T00:27:50;100523.00;;;1.09;100.00
77877;BME280;67251;50.844;7.978;2024-01-27T00:30:15;100529.19;;;1.08;100.00
77877;BME280;67251;50.844;7.978;2024-01-27T00:32:41;100530.97;;;1.07;100.00
77877;BME280;67251;50.844;7.978;2024-01-27T00:35:07;100526.00;;;1.02;100.00
77877;BME280;67251;50.844;7.978;2024-01-27T00:37:33;100529.78;;;0.98;100.00
77877;BME280;67251;50.844;7.978;2024-01-27T00:39:59;100528.03;;;0.99;100.00
77877;BME280;67251;50.844;7.978;2024-01-27T00:42:24;100526.78;;;1.05;100.00
77877;BME280;67251;50.844;7.978;2024-01-27T00:44:50;100533.00;;;1.04;100.00
77877;BME280;67251;50.844;7.978;2024-01-27T00:47:15;100534.75;;;1.03;100.00
77877;BME280;67251;50.844;7.978;2024-01-27T00:49:41;100536.47;;;1.04;100.00
77877;BME280;67251;50.844;7.978;2024-01-27T00:52:06;100533.72;;;1.06;100.00
77877;BME280;67251;50.844;7.978;2024-01-27T00:54:31;100539.53;;;1.11;100.00
77877;BME280;67251;50.844;7.978;2024-01-27T00:56:57;100545.56;;;1.13;100.00
77877;BME280;67251;50.844;7.978;2024-01-27T00:59:22;100551.47;;;1.16;100.00
77877;BME280;67251;50.844;7.978;2024-01-27T01:01:47;100550.81;;;1.13;100.00
77877;BME280;67251;50.844;7.978;2024-01-27T01:04:13;100549.34;;;1.09;100.00
77877;BME280;67251;50.844;7.978;2024-01-27T01:06:39;100553.31;;;1.01;100.00
77877;BME280;67251;50.844;7.978;2024-01-27T01:09:05;100566.13;;;0.93;100.00
77877;BME280;67251;50.844;7.978;2024-01-27T01:11:30;100570.94;;;0.87;100.00
77877;BME280;67251;50.844;7.978;2024-01-27T01:13:56;100565.41;;;0.77;100.00
77877;BME280;67251;50.844;7.978;2024-01-27T01:16:21;100559.78;;;0.69;100.00
77877;BME280;67251;50.844;7.978;2024-01-27T01:18:46;100564.78;;;0.59;100.00
77877;BME280;67251;50.844;7.978;2024-01-27T01:21:12;100562.88;;;0.47;100.00
77877;BME280;67251;50.844;7.978;2024-01-27T01:23:38;100578.91;;;0.30;100.00
77877;BME280;67251;50.844;7.978;2024-01-27T01:26:03;100587.72;;;0.14;100.00
77877;BME280;67251;50.844;7.978;2024-01-27T01:28:28;100586.09;;;-0.03;100.00
77877;BME280;67251;50.844;7.978;2024-01-27T01:30:54;100595.19;;;-0.08;100.00
77877;BME280;67251;50.844;7.978;2024-01-27T01:33:19;100585.88;;;-0.14;100.00
77877;BME280;67251;50.844;7.978;2024-01-27T01:35:45;100590.38;;;-0.16;100.00
77877;BME280;67251;50.844;7.978;2024-01-27T01:38:10;100599.38;;;-0.20;100.00
77877;BME280;67251;50.844;7.978;2024-01-27T01:43:11;100595.22;;;-0.54;100.00
77877;BME280;67251;50.844;7.978;2024-01-27T01:45:39;100604.50;;;-0.79;100.00
77877;BME280;67251;50.844;7.978;2024-01-27T01:48:05;100597.72;;;-0.98;100.00
77877;BME280;67251;50.844;7.978;2024-01-27T01:50:32;100598.53;;;-1.14;100.00
77877;BME280;67251;50.844;7.978;2024-01-27T01:52:58;100604.38;;;-1.24;100.00
77877;BME280;67251;50.844;7.978;2024-01-27T01:55:23;100605.41;;;-1.27;100.00
77877;BME280;67251;50.844;7.978;2024-01-27T01:57:49;100600.56;;;-1.19;100.00
77877;BME280;67251;50.844;7.978;2024-01-27T02:00:15;100602.44;;;-1.21;100.00
77877;BME280;67251;50.844;7.978;2024-01-27T02:02:46;100597.88;;;-1.17;100.00
77877;BME280;67251;50.844;7.978;2024-01-27T02:05:14;100604.59;;;-1.12;100.00
77877;BME280;67251;50.844;7.978;2024-01-27T02:07:40;100600.06;;;-1.10;100.00
77877;BME280;67251;50.844;7.978;2024-01-27T02:10:15;100591.69;;;-1.16;100.00
77877;BME280;67251;50.844;7.978;2024-01-27T02:12:42;100595.16;;;-1.32;100.00
77877;BME280;67251;50.844;7.978;2024-01-27T02:15:12;100595.13;;;-1.47;100.00
77877;BME280;67251;50.844;7.978;2024-01-27T02:17:38;100589.75;;;-1.62;100.00
77877;BME280;67251;50.844;7.978;2024-01-27T02:20:07;100602.59;;;-1.73;100.00
77877;BME280;67251;50.844;7.978;2024-01-27T02:22:34;100598.06;;;-1.87;100.00
77877;BME280;67251;50.844;7.978;2024-01-27T02:25:00;100593.38;;;-1.97;100.00
77877;BME280;67251;50.844;7.978;2024-01-27T02:27:25;100600.91;;;-2.09;100.00
77877;BME280;67251;50.844;7.978;2024-01-27T02:29:51;100600.69;;;-2.21;100.00
77877;BME280;67251;50.844;7.978;2024-01-27T02:32:16;100589.75;;;-2.29;100.00
77877;BME280;67251;50.844;7.978;2024-01-27T02:34:41;100605.16;;;-2.41;100.00
77877;BME280;67251;50.844;7.978;2024-01-27T02:37:07;100605.59;;;-2.50;100.00
77877;BME280;67251;50.844;7.978;2024-01-27T02:39:32;100604.22;;;-2.57;100.00
77877;BME280;67251;50.844;7.978;2024-01-27T02:41:57;100606.03;;;-2.59;100.00
77877;BME280;67251;50.844;7.978;2024-01-27T02:44:23;100597.78;;;-2.69;100.00
77877;BME280;67251;50.844;7.978;2024-01-27T02:46:48;100609.97;;;-2.68;100.00
77877;BME280;67251;50.844;7.978;2024-01-27T02:49:13;100609.50;;;-2.76;100.00
77877;BME280;67251;50.844;7.978;2024-01-27T02:51:39;100609.63;;;-2.79;100.00
77877;BME280;67251;50.844;7.978;2024-01-27T02:54:04;100609.09;;;-2.68;100.00
77877;BME280;67251;50.844;7.978;2024-01-27T02:56:29;100608.00;;;-2.63;100.00
77877;BME280;67251;50.844;7.978;2024-01-27T02:58:55;100611.16;;;-2.56;100.00
77877;BME280;67251;50.844;7.978;2024-01-27T03:01:20;100613.47;;;-2.50;100.00
77877;BME280;67251;50.844;7.978;2024-01-27T03:03:45;100613.16;;;-2.61;100.00
77877;BME280;67251;50.844;7.978;2024-01-27T03:06:11;100613.59;;;-2.70;100.00
77877;BME280;67251;50.844;7.978;2024-01-27T03:08:36;100613.19;;;-2.80;100.00
77877;BME280;67251;50.844;7.978;2024-01-27T03:11:02;100608.16;;;-2.85;100.00
77877;BME280;67251;50.844;7.978;2024-01-27T03:13:27;100617.88;;;-2.87;100.00
77877;BME280;67251;50.844;7.978;2024-01-27T03:15:53;100610.06;;;-2.88;100.00
77877;BME280;67251;50.844;7.978;2024-01-27T03:18:18;100614.53;;;-2.90;100.00
77877;BME280;67251;50.844;7.978;2024-01-27T03:20:43;100612.97;;;-2.94;100.00
77877;BME280;67251;50.844;7.978;2024-01-27T03:23:09;100610.66;;;-3.00;100.00
77877;BME280;67251;50.844;7.978;2024-01-27T03:25:34;100611.56;;;-3.01;100.00
77877;BME280;67251;50.844;7.978;2024-01-27T03:28:00;100608.09;;;-3.02;100.00
77877;BME280;67251;50.844;7.978;2024-01-27T03:30:26;100604.28;;;-3.14;100.00
77877;BME280;67251;50.844;7.978;2024-01-27T03:32:51;100604.84;;;-3.26;100.00
77877;BME280;67251;50.844;7.978;2024-01-27T03:35:17;100609.56;;;-3.34;100.00
77877;BME280;67251;50.844;7.978;2024-01-27T03:37:42;100611.06;;;-3.47;100.00
77877;BME280;67251;50.844;7.978;2024-01-27T03:40:08;100612.44;;;-3.39;100.00
77877;BME280;67251;50.844;7.978;2024-01-27T03:42:34;100613.63;;;-3.27;100.00
77877;BME280;67251;50.844;7.978;2024-01-27T03:44:59;100617.41;;;-3.34;100.00
77877;BME280;67251;50.844;7.978;2024-01-27T03:47:24;100616.16;;;-3.44;100.00
77877;BME280;67251;50.844;7.978;2024-01-27T03:49:50;100623.22;;;-3.46;100.00
77877;BME280;67251;50.844;7.978;2024-01-27T03:52:15;100630.56;;;-3.54;100.00
77877;BME280;67251;50.844;7.978;2024-01-27T03:54:40;100631.75;;;-3.62;100.00
77877;BME280;67251;50.844;7.978;2024-01-27T03:57:06;100629.34;;;-3.66;100.00
77877;BME280;67251;50.844;7.978;2024-01-27T03:59:31;100626.94;;;-3.71;100.00
77877;BME280;67251;50.844;7.978;2024-01-27T04:01:56;100623.72;;;-3.77;100.00
77877;BME280;67251;50.844;7.978;2024-01-27T04:04:22;100619.72;;;-3.86;100.00
77877;BME280;67251;50.844;7.978;2024-01-27T04:06:47;100627.91;;;-3.94;100.00
77877;BME280;67251;50.844;7.978;2024-01-27T04:09:12;100636.53;;;-3.92;100.00
77877;BME280;67251;50.844;7.978;2024-01-27T04:11:38;100633.81;;;-3.89;100.00
77877;BME280;67251;50.844;7.978;2024-01-27T04:14:05;100633.88;;;-3.90;100.00
77877;BME280;67251;50.844;7.978;2024-01-27T04:16:31;100635.75;;;-3.94;100.00
77877;BME280;67251;50.844;7.978;2024-01-27T04:18:56;100634.28;;;-3.99;100.00
77877;BME280;67251;50.844;7.978;2024-01-27T04:21:22;100636.22;;;-4.04;100.00
77877;BME280;67251;50.844;7.978;2024-01-27T04:23:47;100638.03;;;-4.06;100.00
77877;BME280;67251;50.844;7.978;2024-01-27T04:26:13;100634.78;;;-4.12;100.00
77877;BME280;67251;50.844;7.978;2024-01-27T04:28:38;100637.91;;;-4.03;100.00
77877;BME280;67251;50.844;7.978;2024-01-27T04:31:04;100641.00;;;-3.94;100.00
77877;BME280;67251;50.844;7.978;2024-01-27T04:33:30;100646.22;;;-3.94;100.00
77877;BME280;67251;50.844;7.978;2024-01-27T04:35:55;100638.91;;;-3.86;100.00
77877;BME280;67251;50.844;7.978;2024-01-27T04:38:21;100638.84;;;-3.84;100.00
77877;BME280;67251;50.844;7.978;2024-01-27T04:40:46;100644.00;;;-4.03;100.00
77877;BME280;67251;50.844;7.978;2024-01-27T04:43:18;100640.31;;;-4.19;100.00
77877;BME280;67251;50.844;7.978;2024-01-27T04:45:45;100645.88;;;-4.27;100.00
77877;BME280;67251;50.844;7.978;2024-01-27T04:48:10;100644.09;;;-4.26;100.00
77877;BME280;67251;50.844;7.978;2024-01-27T04:50:36;100653.94;;;-4.33;100.00
77877;BME280;67251;50.844;7.978;2024-01-27T04:53:01;100650.47;;;-4.33;100.00
77877;BME280;67251;50.844;7.978;2024-01-27T04:55:27;100648.59;;;-4.30;100.00
77877;BME280;67251;50.844;7.978;2024-01-27T04:57:53;100645.31;;;-4.35;100.00
77877;BME280;67251;50.844;7.978;2024-01-27T05:00:19;100654.84;;;-4.34;100.00
77877;BME280;67251;50.844;7.978;2024-01-27T05:02:45;100654.25;;;-4.19;100.00
77877;BME280;67251;50.844;7.978;2024-01-27T05:05:11;100657.47;;;-3.92;100.00
77877;BME280;67251;50.844;7.978;2024-01-27T05:07:37;100667.41;;;-4.00;100.00
77877;BME280;67251;50.844;7.978;2024-01-27T05:10:03;100668.50;;;-4.05;100.00
77877;BME280;67251;50.844;7.978;2024-01-27T05:12:28;100666.13;;;-4.12;100.00
77877;BME280;67251;50.844;7.978;2024-01-27T05:14:54;100672.56;;;-4.19;100.00
77877;BME280;67251;50.844;7.978;2024-01-27T05:17:19;100662.22;;;-4.22;100.00
77877;BME280;67251;50.844;7.978;2024-01-27T05:19:44;100664.63;;;-4.17;100.00
77877;BME280;67251;50.844;7.978;2024-01-27T05:22:10;100670.97;;;-4.23;100.00
77877;BME280;67251;50.844;7.978;2024-01-27T05:24:35;100682.94;;;-4.17;100.00
77877;BME280;67251;50.844;7.978;2024-01-27T05:27:01;100680.38;;;-4.19;100.00
77877;BME280;67251;50.844;7.978;2024-01-27T05:29:27;100686.66;;;-4.23;100.00
77877;BME280;67251;50.844;7.978;2024-01-27T05:31:53;100692.66;;;-4.21;100.00
77877;BME280;67251;50.844;7.978;2024-01-27T05:34:19;100689.75;;;-4.35;100.00
77877;BME280;67251;50.844;7.978;2024-01-27T05:36:44;100693.63;;;-4.45;100.00
77877;BME280;67251;50.844;7.978;2024-01-27T05:39:10;100693.56;;;-4.44;100.00
77877;BME280;67251;50.844;7.978;2024-01-27T05:41:35;100691.50;;;-4.57;100.00
77877;BME280;67251;50.844;7.978;2024-01-27T05:44:00;100695.50;;;-4.71;100.00
77877;BME280;67251;50.844;7.978;2024-01-27T05:46:26;100695.56;;;-4.72;100.00
77877;BME280;67251;50.844;7.978;2024-01-27T05:48:52;100689.03;;;-4.60;100.00
77877;BME280;67251;50.844;7.978;2024-01-27T05:51:22;100696.19;;;-4.66;100.00
77877;BME280;67251;50.844;7.978;2024-01-27T05:53:50;100700.78;;;-4.72;100.00
77877;BME280;67251;50.844;7.978;2024-01-27T05:56:16;100696.66;;;-4.78;100.00
77877;BME280;67251;50.844;7.978;2024-01-27T05:58:44;100699.03;;;-4.72;100.00
77877;BME280;67251;50.844;7.978;2024-01-27T06:01:09;100717.94;;;-4.65;100.00
77877;BME280;67251;50.844;7.978;2024-01-27T06:03:35;100712.31;;;-4.78;100.00
77877;BME280;67251;50.844;7.978;2024-01-27T06:06:01;100712.66;;;-4.64;100.00
77877;BME280;67251;50.844;7.978;2024-01-27T06:08:26;100720.13;;;-4.54;100.00
77877;BME280;67251;50.844;7.978;2024-01-27T06:10:52;100718.03;;;-4.68;100.00
77877;BME280;67251;50.844;7.978;2024-01-27T06:13:17;100717.69;;;-4.59;100.00
77877;BME280;67251;50.844;7.978;2024-01-27T06:15:43;100725.47;;;-4.57;100.00
77877;BME280;67251;50.844;7.978;2024-01-27T06:18:08;100722.34;;;-4.67;100.00
77877;BME280;67251;50.844;7.978;2024-01-27T06:20:33;100724.63;;;-4.81;100.00
77877;BME280;67251;50.844;7.978;2024-01-27T06:22:59;100726.81;;;-4.93;100.00
77877;BME280;67251;50.844;7.978;2024-01-27T06:25:24;100722.66;;;-4.98;100.00
77877;BME280;67251;50.844;7.978;2024-01-27T06:27:49;100725.16;;;-4.95;100.00
77877;BME280;67251;50.844;7.978;2024-01-27T06:30:15;100726.00;;;-4.95;100.00
77877;BME280;67251;50.844;7.978;2024-01-27T06:32:41;100728.09;;;-4.81;100.00
77877;BME280;67251;50.844;7.978;2024-01-27T06:35:07;100715.00;;;-4.79;100.00
77877;BME280;67251;50.844;7.978;2024-01-27T06:37:33;100727.66;;;-4.92;100.00
77877;BME280;67251;50.844;7.978;2024-01-27T06:39:58;100719.72;;;-5.12;100.00
77877;BME280;67251;50.844;7.978;2024-01-27T06:42:23;100719.22;;;-5.24;100.00
77877;BME280;67251;50.844;7.978;2024-01-27T06:44:49;100728.19;;;-5.31;100.00
77877;BME280;67251;50.844;7.978;2024-01-27T06:47:15;100717.03;;;-5.34;100.00
77877;BME280;67251;50.844;7.978;2024-01-27T06:49:40;100716.25;;;-5.38;100.00
77877;BME280;67251;50.844;7.978;2024-01-27T06:52:06;100721.38;;;-5.35;100.00
77877;BME280;67251;50.844;7.978;2024-01-27T06:54:31;100731.06;;;-5.38;100.00
77877;BME280;67251;50.844;7.978;2024-01-27T06:56:59;100724.00;;;-5.35;100.00
77877;BME280;67251;50.844;7.978;2024-01-27T06:59:25;100725.63;;;-5.32;100.00
77877;BME280;67251;50.844;7.978;2024-01-27T07:01:50;100729.09;;;-5.32;100.00
77877;BME280;67251;50.844;7.978;2024-01-27T07:04:16;100710.78;;;-5.30;100.00
77877;BME280;67251;50.844;7.978;2024-01-27T07:06:42;100708.28;;;-5.33;100.00
77877;BME280;67251;50.844;7.978;2024-01-27T07:09:08;100716.25;;;-5.38;100.00
77877;BME280;67251;50.844;7.978;2024-01-27T07:11:35;100717.97;;;-5.37;100.00
77877;BME280;67251;50.844;7.978;2024-01-27T07:14:00;100723.03;;;-5.32;100.00
77877;BME280;67251;50.844;7.978;2024-01-27T07:16:25;100718.81;;;-5.36;100.00
77877;BME280;67251;50.844;7.978;2024-01-27T07:18:51;100717.97;;;-5.37;100.00
77877;BME280;67251;50.844;7.978;2024-01-27T07:21:16;100716.94;;;-5.33;100.00
77877;BME280;67251;50.844;7.978;2024-01-27T07:23:43;100719.47;;;-5.30;100.00
77877;BME280;67251;50.844;7.978;2024-01-27T07:26:12;100720.41;;;-5.32;100.00
77877;BME280;67251;50.844;7.978;2024-01-27T07:28:37;100725.53;;;-5.29;100.00
77877;BME280;67251;50.844;7.978;2024-01-27T07:31:03;100722.75;;;-5.25;100.00
77877;BME280;67251;50.844;7.978;2024-01-27T07:33:29;100723.88;;;-5.08;100.00
77877;BME280;67251;50.844;7.978;2024-01-27T07:35:54;100728.78;;;-4.99;100.00
77877;BME280;67251;50.844;7.978;2024-01-27T07:38:20;100729.81;;;-5.03;100.00
77877;BME280;67251;50.844;7.978;2024-01-27T07:40:45;100729.75;;;-5.02;100.00
77877;BME280;67251;50.844;7.978;2024-01-27T07:43:10;100737.44;;;-4.99;100.00
77877;BME280;67251;50.844;7.978;2024-01-27T07:45:36;100730.16;;;-4.89;100.00
77877;BME280;67251;50.844;7.978;2024-01-27T07:48:01;100726.44;;;-4.60;100.00
77877;BME280;67251;50.844;7.978;2024-01-27T07:50:26;100735.38;;;-4.44;100.00
77877;BME280;67251;50.844;7.978;2024-01-27T07:52:52;100719.97;;;-4.28;100.00
77877;BME280;67251;50.844;7.978;2024-01-27T07:55:17;100722.88;;;-4.14;100.00
77877;BME280;67251;50.844;7.978;2024-01-27T07:57:43;100728.56;;;-4.04;100.00
77877;BME280;67251;50.844;7.978;2024-01-27T08:00:08;100727.81;;;-3.86;100.00
77877;BME280;67251;50.844;7.978;2024-01-27T08:02:34;100729.00;;;-3.72;100.00
77877;BME280;67251;50.844;7.978;2024-01-27T08:04:59;100742.59;;;-3.64;100.00
77877;BME280;67251;50.844;7.978;2024-01-27T08:07:25;100734.75;;;-3.64;100.00
77877;BME280;67251;50.844;7.978;2024-01-27T08:09:50;100733.84;;;-3.63;100.00
77877;BME280;67251;50.844;7.978;2024-01-27T08:12:15;100747.66;;;-3.60;100.00
77877;BME280;67251;50.844;7.978;2024-01-27T08:14:41;100740.44;;;-3.54;100.00
77877;BME280;67251;50.844;7.978;2024-01-27T08:17:06;100752.38;;;-3.47;100.00
77877;BME280;67251;50.844;7.978;2024-01-27T08:19:32;100744.25;;;-3.41;100.00
77877;BME280;67251;50.844;7.978;2024-01-27T08:21:57;100736.97;;;-3.35;100.00
77877;BME280;67251;50.844;7.978;2024-01-27T08:24:23;100746.19;;;-3.26;100.00
77877;BME280;67251;50.844;7.978;2024-01-27T08:26:49;100742.13;;;-3.13;100.00
77877;BME280;67251;50.844;7.978;2024-01-27T08:29:15;100730.09;;;-2.59;100.00
77877;BME280;67251;50.844;7.978;2024-01-27T08:31:40;100735.56;;;-1.91;100.00
77877;BME280;67251;50.844;7.978;2024-01-27T08:34:06;100738.88;;;-0.85;100.00
77877;BME280;67251;50.844;7.978;2024-01-27T08:36:31;100739.88;;;-0.71;100.00
77877;BME280;67251;50.844;7.978;2024-01-27T08:38:59;100761.84;;;-0.88;100.00
77877;BME280;67251;50.844;7.978;2024-01-27T08:41:24;100764.50;;;-0.25;100.00
77877;BME280;67251;50.844;7.978;2024-01-27T08:43:49;100766.09;;;1.14;100.00
77877;BME280;67251;50.844;7.978;2024-01-27T08:46:15;100762.38;;;2.27;100.00
77877;BME280;67251;50.844;7.978;2024-01-27T08:48:42;100758.44;;;3.37;100.00
77877;BME280;67251;50.844;7.978;2024-01-27T08:51:09;100760.16;;;4.46;97.94
77877;BME280;67251;50.844;7.978;2024-01-27T08:53:34;100754.16;;;5.58;93.92
77877;BME280;67251;50.844;7.978;2024-01-27T08:56:01;100756.97;;;6.43;88.48
77877;BME280;67251;50.844;7.978;2024-01-27T08:58:26;100764.56;;;7.10;84.45
77877;BME280;67251;50.844;7.978;2024-01-27T09:00:51;100755.25;;;7.56;80.88
77877;BME280;67251;50.844;7.978;2024-01-27T09:03:18;100748.22;;;7.96;76.51
77877;BME280;67251;50.844;7.978;2024-01-27T09:05:46;100755.69;;;8.31;73.60
77877;BME280;67251;50.844;7.978;2024-01-27T09:08:11;100750.38;;;8.50;71.65
77877;BME280;67251;50.844;7.978;2024-01-27T09:10:37;100756.53;;;8.89;69.23
77877;BME280;67251;50.844;7.978;2024-01-27T09:13:02;100751.75;;;9.40;65.68
77877;BME280;67251;50.844;7.978;2024-01-27T09:15:28;100754.03;;;9.62;62.04
77877;BME280;67251;50.844;7.978;2024-01-27T09:17:53;100754.91;;;9.53;56.88
77877;BME280;67251;50.844;7.978;2024-01-27T09:20:19;100752.84;;;10.02;57.70
77877;BME280;67251;50.844;7.978;2024-01-27T09:22:44;100741.16;;;10.39;53.57
77877;BME280;67251;50.844;7.978;2024-01-27T09:25:12;100741.56;;;10.44;53.53
77877;BME280;67251;50.844;7.978;2024-01-27T09:27:39;100755.84;;;10.70;53.67
77877;BME280;67251;50.844;7.978;2024-01-27T09:30:05;100755.06;;;11.04;49.54
77877;BME280;67251;50.844;7.978;2024-01-27T09:32:31;100762.84;;;10.89;48.69
77877;BME280;67251;50.844;7.978;2024-01-27T09:34:56;100771.53;;;10.65;49.76
77877;BME280;67251;50.844;7.978;2024-01-27T09:37:21;100778.81;;;10.55;49.05
77877;BME280;67251;50.844;7.978;2024-01-27T09:39:47;100786.59;;;10.48;49.20
77877;BME280;67251;50.844;7.978;2024-01-27T09:42:13;100791.34;;;10.55;49.38
77877;BME280;67251;50.844;7.978;2024-01-27T09:44:48;100790.91;;;11.03;49.36
77877;BME280;67251;50.844;7.978;2024-01-27T09:47:13;100791.13;;;11.36;48.59
77877;BME280;67251;50.844;7.978;2024-01-27T09:49:40;100780.94;;;11.73;47.89
77877;BME280;67251;50.844;7.978;2024-01-27T09:52:06;100781.50;;;12.44;45.54
77877;BME280;67251;50.844;7.978;2024-01-27T09:54:32;100774.78;;;12.64;44.74
77877;BME280;67251;50.844;7.978;2024-01-27T09:56:58;100776.13;;;12.68;44.40
77877;BME280;67251;50.844;7.978;2024-01-27T09:59:24;100778.16;;;12.58;44.62
77877;BME280;67251;50.844;7.978;2024-01-27T10:01:52;100769.06;;;12.84;43.82
77877;BME280;67251;50.844;7.978;2024-01-27T10:04:19;100773.94;;;12.88;43.44
77877;BME280;67251;50.844;7.978;2024-01-27T10:06:49;100765.03;;;12.79;43.17
77877;BME280;67251;50.844;7.978;2024-01-27T10:09:16;100773.13;;;12.71;44.40
77877;BME280;67251;50.844;7.978;2024-01-27T10:11:45;100769.09;;;12.67;45.44
77877;BME280;67251;50.844;7.978;2024-01-27T10:14:11;100769.56;;;12.79;45.89
77877;BME280;67251;50.844;7.978;2024-01-27T10:16:44;100761.28;;;13.21;43.59
77877;BME280;67251;50.844;7.978;2024-01-27T10:19:20;100762.63;;;13.17;42.80
77877;BME280;67251;50.844;7.978;2024-01-27T10:21:46;100760.19;;;12.99;43.14
77877;BME280;67251;50.844;7.978;2024-01-27T10:24:12;100760.50;;;13.04;43.79
77877;BME280;67251;50.844;7.978;2024-01-27T10:26:38;100754.72;;;13.48;44.00
77877;BME280;67251;50.844;7.978;2024-01-27T10:29:03;100752.66;;;13.59;43.98
77877;BME280;67251;50.844;7.978;2024-01-27T10:31:35;100752.31;;;13.62;43.53
77877;BME280;67251;50.844;7.978;2024-01-27T10:34:01;100751.16;;;13.56;43.14
77877;BME280;67251;50.844;7.978;2024-01-27T10:36:41;100742.84;;;13.74;43.21
77877;BME280;67251;50.844;7.978;2024-01-27T10:39:17;100737.28;;;13.12;42.65
77877;BME280;67251;50.844;7.978;2024-01-27T10:41:45;100730.47;;;12.85;42.87
77877;BME280;67251;50.844;7.978;2024-01-27T10:44:14;100740.53;;;12.83;44.77
77877;BME280;67251;50.844;7.978;2024-01-27T10:46:44;100732.78;;;13.04;43.46
77877;BME280;67251;50.844;7.978;2024-01-27T10:49:14;100724.50;;;13.38;42.66
77877;BME280;67251;50.844;7.978;2024-01-27T10:51:45;100718.00;;;13.95;41.82
77877;BME280;67251;50.844;7.978;2024-01-27T10:54:15;100720.28;;;14.06;41.41
77877;BME280;67251;50.844;7.978;2024-01-27T10:56:43;100715.34;;;13.87;40.48
77877;BME280;67251;50.844;7.978;2024-01-27T10:59:11;100713.50;;;13.56;41.25
77877;BME280;67251;50.844;7.978;2024-01-27T11:01:39;100728.72;;;13.33;42.38
77877;BME280;67251;50.844;7.978;2024-01-27T11:04:05;100718.28;;;13.38;41.44
77877;BME280;67251;50.844;7.978;2024-01-27T11:06:33;100735.13;;;13.23;43.27
77877;BME280;67251;50.844;7.978;2024-01-27T11:09:01;100740.28;;;13.41;43.11
77877;BME280;67251;50.844;7.978;2024-01-27T11:11:30;100740.97;;;13.35;42.62
77877;BME280;67251;50.844;7.978;2024-01-27T11:13:56;100742.16;;;13.16;42.15
77877;BME280;67251;50.844;7.978;2024-01-27T11:16:22;100740.50;;;13.07;42.54
77877;BME280;67251;50.844;7.978;2024-01-27T11:18:48;100742.19;;;13.00;42.85
77877;BME280;67251;50.844;7.978;2024-01-27T11:21:15;100738.34;;;12.86;42.44
77877;BME280;67251;50.844;7.978;2024-01-27T11:23:43;100740.53;;;12.83;42.89
77877;BME280;67251;50.844;7.978;2024-01-27T11:26:10;100740.75;;;11.90;43.04
77877;BME280;67251;50.844;7.978;2024-01-27T11:28:39;100747.91;;;10.87;46.12
77877;BME280;67251;50.844;7.978;2024-01-27T11:31:07;100744.16;;;10.97;47.37
77877;BME280;67251;50.844;7.978;2024-01-27T11:33:32;100738.19;;;10.42;46.66
77877;BME280;67251;50.844;7.978;2024-01-27T11:36:05;100729.53;;;10.48;47.22
77877;BME280;67251;50.844;7.978;2024-01-27T11:38:31;100724.81;;;10.42;47.44
77877;BME280;67251;50.844;7.978;2024-01-27T11:41:00;100722.59;;;10.55;47.60
77877;BME280;67251;50.844;7.978;2024-01-27T11:43:26;100727.31;;;10.61;47.49
77877;BME280;67251;50.844;7.978;2024-01-27T11:45:58;100725.84;;;11.11;47.49
77877;BME280;67251;50.844;7.978;2024-01-27T11:48:24;100731.63;;;11.32;46.81
77877;BME280;67251;50.844;7.978;2024-01-27T11:51:06;100740.16;;;10.75;45.57
77877;BME280;67251;50.844;7.978;2024-01-27T11:53:33;100739.84;;;10.79;47.69
77877;BME280;67251;50.844;7.978;2024-01-27T11:55:59;100748.28;;;10.66;46.64
77877;BME280;67251;50.844;7.978;2024-01-27T11:58:25;100748.69;;;10.35;46.97
77877;BME280;67251;50.844;7.978;2024-01-27T12:00:51;100753.25;;;10.25;48.40
77877;BME280;67251;50.844;7.978;2024-01-27T12:03:17;100740.91;;;10.14;49.21
77877;BME280;67251;50.844;7.978;2024-01-27T12:05:43;100729.06;;;9.99;49.55
77877;BME280;67251;50.844;7.978;2024-01-27T12:08:08;100732.44;;;9.73;49.49
77877;BME280;67251;50.844;7.978;2024-01-27T12:10:34;100732.84;;;9.51;51.25
77877;BME280;67251;50.844;7.978;2024-01-27T12:13:00;100737.81;;;9.09;50.87
77877;BME280;67251;50.844;7.978;2024-01-27T12:15:25;100732.28;;;8.63;51.68
77877;BME280;67251;50.844;7.978;2024-01-27T12:17:52;100733.69;;;8.38;53.66
77877;BME280;67251;50.844;7.978;2024-01-27T12:20:17;100733.66;;;8.19;54.93
77877;BME280;67251;50.844;7.978;2024-01-27T12:22:43;100736.69;;;7.95;55.01
77877;BME280;67251;50.844;7.978;2024-01-27T12:25:12;100726.56;;;7.79;55.07
77877;BME280;67251;50.844;7.978;2024-01-27T12:27:41;100727.13;;;7.73;56.57
77877;BME280;67251;50.844;7.978;2024-01-27T12:30:07;100730.25;;;7.48;55.22
77877;BME280;67251;50.844;7.978;2024-01-27T12:32:33;100736.56;;;7.47;55.90
77877;BME280;67251;50.844;7.978;2024-01-27T12:35:04;100732.19;;;7.36;55.21
77877;BME280;67251;50.844;7.978;2024-01-27T12:37:30;100740.81;;;7.18;55.85
77877;BME280;67251;50.844;7.978;2024-01-27T12:39:55;100735.28;;;7.10;55.10
77877;BME280;67251;50.844;7.978;2024-01-27T12:42:21;100731.09;;;7.08;53.68